Rhosneigr, United Kingdom
Current Conditions -  °F | °C
As of 6:50 AM on Saturday 29 Nov 2014 (Local Time) from EGOV Reporting Station
Haze Haze  
Wind Chill:   Ceiling: Unl
Heat Index:   Visibility: 2.5mi
Dew Point:   Wind: 6mph
Humidity: 93%   Direction: 90°E
Pressure: 29.77"   Gusts: NA
Location:  53.23°N, 4.52°W
Report Text: EGOV 290650Z AUTO 09005KT 4000 BR SCT080/// 06/05 Q1008
Loading
Personal Weather Stations






























Interactive Weather Map New forecast layout! Learn more

10-Day Weather Forecast

Advertisements
Track Severe Weather on mobile